Daio — JG5587 — position and weather

sailwx.info

Track history (hours):
 
Tides and Currents Weather Stations Pressure Air Temp Water Temp Dewpoint Dewpoint Depression Visibility Wind Speed Wind Dir Waves Ship Positions

Daio

Last reported at 2014-Nov-24 03:04 UTC. Time now 2014-Nov-25 00:44 UTC.
Position N 35°29' E 139°54'.

Length 36 m; draft 3.4 m.

Type: Tug. MMSI: 431003092.

Date/timePositionNaut miles runAvg speedWind from/ knotsBaromVisibWave heightAir tempDewpointWater temp
2014-Nov-24 03:04N 35°29' E 139°54'0 0.7
2014-Nov-24 02:33N 35°29' E 139°54'2 0.1
2014-Nov-23 02:19N 35°31' E 139°56'0 0.0
2014-Nov-23 01:33N 35°31' E 139°56'0 0.4
2014-Nov-23 00:25N 35°30' E 139°56'2 1.9
2014-Nov-22 23:34N 35°29' E 139°54'6 0.3
2014-Nov-22 04:07N 35°33' E 139°60'5 0.1
2014-Nov-20 03:26N 35°29' E 139°58'4 4.1
2014-Nov-20 02:33N 35°29' E 139°53'2 0.1
2014-Nov-19 02:29N 35°30' E 139°55'1 1.4
2014-Nov-19 01:27N 35°29' E 139°57'1 1.5
2014-Nov-19 00:33N 35°28' E 139°58'3 0.1
2014-Nov-18 01:16N 35°31' E 139°57'  
Track history (hours):
 
Tides and Currents Weather Stations Pressure Air Temp Water Temp Dewpoint Dewpoint Depression Visibility Wind Speed Wind Dir Waves Ship Positions

Daio

Last reported at 2014-Nov-24 03:04 UTC. Time now 2014-Nov-25 00:44 UTC.
Position N 35°29' E 139°54'.

Length 36 m; draft 3.4 m.

Type: Tug. MMSI: 431003092.

Date/timePositionNaut miles runAvg speedWind from/ knotsBaromVisibWave heightAir tempDewpointWater temp
2014-Nov-24 03:04N 35°29' E 139°54'0 0.7
2014-Nov-24 02:33N 35°29' E 139°54'2 0.1
2014-Nov-23 02:19N 35°31' E 139°56'0 0.0
2014-Nov-23 01:33N 35°31' E 139°56'0 0.4
2014-Nov-23 00:25N 35°30' E 139°56'2 1.9
2014-Nov-22 23:34N 35°29' E 139°54'6 0.3
2014-Nov-22 04:07N 35°33' E 139°60'5 0.1
2014-Nov-20 03:26N 35°29' E 139°58'4 4.1
2014-Nov-20 02:33N 35°29' E 139°53'2 0.1
2014-Nov-19 02:29N 35°30' E 139°55'1 1.4
2014-Nov-19 01:27N 35°29' E 139°57'1 1.5
2014-Nov-19 00:33N 35°28' E 139°58'3 0.1
2014-Nov-18 01:16N 35°31' E 139°57'  

Dump ship's entire track history